Time;durP1;ratioP1;P1;durP2;ratioP2;P2;SDS_P1;SDS_P2;PMS_P1;PMS_P2;Temp;Humidity;BMP_temperature;BMP_pressure;BME280_temperature;BME280_humidity;BME280_pressure;Samples;Min_cycle;Max_cycle;Signal;HPM_P1;HPM_P2
2021/06/19 00:03:19;;;;;;;;;;;22.90;79.50;;;21.92;55.89;95499.31;10414228;28;2195;-79
2021/06/19 00:08:24;;;;;;;;;;;22.90;80.20;;;21.88;56.04;95501.16;10411561;28;2106;-77
2021/06/19 00:13:27;;;;;;;;;;;22.90;80.50;;;21.97;56.22;95504.53;10414880;28;2123;-80
2021/06/19 00:18:29;;;;;;;;;;;22.80;81.10;;;22.02;55.92;95508.97;10400675;28;2076;-78
2021/06/19 00:23:32;;;;;;;;;;;22.90;80.90;;;22.02;56.57;95517.97;10403078;28;2234;-77
2021/06/19 00:28:35;;;;;;;;;;;22.90;81.30;;;22.19;56.49;95524.25;10417022;28;2083;-78
2021/06/19 00:33:38;;;;;;;;;;;23.00;81.60;;;22.33;56.27;95524.59;10408622;28;2040;-79
2021/06/19 00:38:40;;;;;;;;;;;23.10;81.80;;;22.50;56.24;95543.38;10407706;28;2090;-78
2021/06/19 00:43:43;;;;;;;;;;;23.20;82.20;;;22.42;57.54;95541.63;10410604;28;2094;-77
2021/06/19 00:48:46;;;;;;;;;;;23.30;82.90;;;22.42;58.43;95541.63;10396607;28;2072;-78
2021/06/19 00:53:48;;;;;;;;;;;23.30;84.00;;;22.51;59.26;95555.13;10409028;28;2052;-76
2021/06/19 00:58:55;;;;;;;;;;;23.30;84.90;;;22.54;59.57;95548.97;10407215;28;2158;-79
2021/06/19 01:03:58;;;;;;;;;;;23.30;85.50;;;22.72;59.72;95563.09;10409746;28;2056;-80
2021/06/19 01:09:00;;;;;;;;;;;23.40;86.20;;;22.58;60.41;95572.53;10394726;28;2060;-79
2021/06/19 01:14:03;;;;;;;;;;;23.40;86.40;;;22.64;60.84;95584.81;10414154;28;2119;-77
2021/06/19 01:19:06;;;;;;;;;;;23.40;87.10;;;22.52;62.10;95573.16;10416127;28;2118;-78
2021/06/19 01:24:09;;;;;;;;;;;23.40;88.10;;;22.31;63.14;95573.44;10399006;28;2199;-77
2021/06/19 01:29:12;;;;;;;;;;;23.30;88.60;;;22.29;62.52;95567.53;10386957;28;2132;-79
2021/06/19 01:34:15;;;;;;;;;;;23.20;88.50;;;22.28;62.32;95563.22;10416232;28;2111;-78
2021/06/19 01:39:17;;;;;;;;;;;23.20;88.50;;;22.23;62.40;95560.72;10414522;28;2242;-77
2021/06/19 01:44:20;;;;;;;;;;;23.10;88.70;;;22.05;62.61;95569.25;10408632;28;2031;-77
2021/06/19 01:49:23;;;;;;;;;;;23.00;88.40;;;22.19;62.12;95565.31;10417325;28;2148;-77
2021/06/19 01:54:25;;;;;;;;;;;23.00;88.90;;;22.25;61.40;95572.13;10410174;28;2172;-76
2021/06/19 01:59:28;;;;;;;;;;;23.00;88.40;;;22.20;61.63;95583.31;10420486;28;2083;-78
2021/06/19 02:04:32;;;;;;;;;;;23.10;88.50;;;22.27;61.67;95586.25;10410831;28;2188;-77
2021/06/19 02:09:34;;;;;;;;;;;23.10;88.80;;;22.24;62.13;95593.22;10425463;28;2087;-77
2021/06/19 02:14:37;;;;;;;;;;;23.10;89.20;;;22.12;62.91;95596.03;10405901;28;2168;-78
2021/06/19 02:19:40;;;;;;;;;;;23.10;89.60;;;22.13;62.71;95589.41;10398267;28;2171;-77
2021/06/19 02:24:42;;;;;;;;;;;23.00;89.80;;;22.24;62.47;95595.97;10418618;28;2131;-78
2021/06/19 02:29:45;;;;;;;;;;;23.00;89.90;;;22.22;62.60;95581.03;10394999;28;2135;-77
2021/06/19 02:34:48;;;;;;;;;;;23.10;90.10;;;22.28;62.51;95596.06;10418896;28;2082;-78
2021/06/19 02:39:50;;;;;;;;;;;23.00;90.30;;;22.29;62.63;95590.22;10419665;28;2245;-78
2021/06/19 02:44:53;;;;;;;;;;;23.10;90.50;;;22.28;62.72;95601.53;10409822;28;2378;-77
2021/06/19 02:49:56;;;;;;;;;;;23.10;90.60;;;22.32;62.79;95605.16;10426681;28;2208;-79
2021/06/19 02:54:58;;;;;;;;;;;23.10;90.60;;;22.24;63.20;95603.38;10396826;28;2084;-79
2021/06/19 03:00:01;;;;;;;;;;;23.10;90.70;;;22.18;63.21;95599.31;10408683;28;2075;-78
2021/06/19 03:05:04;;;;;;;;;;;23.10;91.00;;;22.13;64.12;95601.16;10418948;28;2176;-79
2021/06/19 03:10:07;;;;;;;;;;;23.00;91.50;;;22.21;64.13;95607.63;10421352;28;2128;-77
2021/06/19 03:15:09;;;;;;;;;;;23.00;91.80;;;22.26;64.00;95603.81;10423581;28;2202;-78
2021/06/19 03:20:12;;;;;;;;;;;23.00;92.00;;;22.24;64.23;95611.59;10426039;28;2131;-78
2021/06/19 03:25:15;;;;;;;;;;;23.10;92.30;;;22.09;65.15;95611.22;10419535;28;2050;-77
2021/06/19 03:30:18;;;;;;;;;;;23.00;92.70;;;22.33;63.94;95604.00;10414466;28;2131;-77
2021/06/19 03:35:22;;;;;;;;;;;23.10;92.70;;;22.28;64.38;95612.50;10402619;28;2254;-78
2021/06/19 03:40:25;;;;;;;;;;;23.10;92.80;;;22.24;64.59;95619.81;10417712;28;2048;-76
2021/06/19 03:45:27;;;;;;;;;;;23.10;93.00;;;22.30;64.50;95624.66;10411386;28;2147;-79
2021/06/19 03:50:30;;;;;;;;;;;23.10;93.00;;;22.44;64.06;95621.50;10402630;28;2087;-78
2021/06/19 03:55:33;;;;;;;;;;;23.20;92.80;;;22.54;64.06;95626.44;10411714;28;2203;-78
2021/06/19 04:00:36;;;;;;;;;;;23.30;93.10;;;22.64;63.60;95631.38;10424088;28;2096;-77
2021/06/19 04:05:39;;;;;;;;;;;23.40;92.90;;;22.80;63.12;95633.34;10420020;28;2107;-78
2021/06/19 04:10:41;;;;;;;;;;;23.40;92.60;;;22.86;62.97;95637.41;10416685;28;2204;-77
2021/06/19 04:15:46;;;;;;;;;;;23.60;92.30;;;23.01;62.17;95652.25;10403696;28;2255;-76
2021/06/19 04:20:48;;;;;;;;;;;23.70;91.90;;;23.07;61.86;95654.34;10407429;28;2252;-80
2021/06/19 04:25:51;;;;;;;;;;;23.80;91.50;;;22.94;62.36;95661.09;10421592;28;2095;-78
2021/06/19 04:30:58;;;;;;;;;;;23.80;91.50;;;23.38;60.68;95669.94;10418237;28;2012;-77
2021/06/19 04:36:09;;;;;;;;;;;23.80;91.10;;;23.39;60.83;95677.03;10414294;28;2145;-78
2021/06/19 04:41:22;;;;;;;;;;;23.90;91.00;;;23.54;59.83;95693.78;10418959;28;2060;-79
2021/06/19 04:46:25;;;;;;;;;;;24.10;90.50;;;23.64;59.95;95699.53;10427775;28;2048;-80
2021/06/19 04:51:28;;;;;;;;;;;24.20;90.30;;;23.86;59.26;95706.28;10419255;28;2068;-79
2021/06/19 04:56:31;;;;;;;;;;;24.30;90.00;;;24.01;58.04;95701.88;10407053;28;2075;-79
2021/06/19 05:01:33;;;;;;;;;;;24.50;89.10;;;23.98;58.25;95706.16;10430903;28;2094;-79
2021/06/19 05:06:36;;;;;;;;;;;24.60;88.70;;;24.06;57.59;95709.84;10426103;28;2028;-79
2021/06/19 05:11:39;;;;;;;;;;;24.50;88.70;;;24.35;57.04;95710.41;10420845;28;2076;-78
2021/06/19 05:16:41;;;;;;;;;;;24.70;88.30;;;24.82;55.30;95714.81;10422176;28;2104;-77
2021/06/19 05:21:44;;;;;;;;;;;25.00;87.20;;;24.95;54.86;95717.00;10431659;28;2095;-78
2021/06/19 05:26:47;;;;;;;;;;;25.30;86.40;;;25.42;53.62;95723.25;10409233;28;2351;-80
2021/06/19 05:31:50;;;;;;;;;;;25.70;85.10;;;25.39;53.26;95721.25;10429403;28;2246;-79
2021/06/19 05:36:53;;;;;;;;;;;25.90;84.10;;;25.39;53.02;95733.06;10424045;28;2113;-78
2021/06/19 05:41:56;;;;;;;;;;;25.80;83.90;;;24.51;56.05;95733.88;10411019;28;2136;-80
2021/06/19 05:46:58;;;;;;;;;;;25.50;85.00;;;24.83;54.78;95730.13;10438776;28;2045;-79
2021/06/19 05:52:10;;;;;;;;;;;25.30;85.60;;;24.58;55.95;95744.22;10425278;28;2160;-78
2021/06/19 05:57:13;;;;;;;;;;;25.30;85.90;;;24.32;56.86;95750.38;10423222;28;2131;-79
2021/06/19 06:02:15;;;;;;;;;;;25.10;86.90;;;23.96;58.65;95752.38;10430395;28;2136;-79
2021/06/19 06:07:18;;;;;;;;;;;24.80;88.00;;;23.85;59.56;95758.78;10419684;28;1952;-79
2021/06/19 06:12:21;;;;;;;;;;;24.70;89.20;;;24.31;58.56;95754.28;10428102;28;2085;-77
2021/06/19 06:17:25;;;;;;;;;;;24.80;89.40;;;24.76;57.51;95759.09;10415349;28;2130;-76
2021/06/19 06:22:28;;;;;;;;;;;25.20;88.90;;;25.14;55.62;95757.41;10420647;28;2155;-77
2021/06/19 06:27:30;;;;;;;;;;;25.60;87.00;;;25.39;55.27;95760.56;10408774;28;2076;-79
2021/06/19 06:32:34;;;;;;;;;;;25.90;85.90;;;25.98;54.03;95766.56;10436991;28;2218;-78
2021/06/19 06:37:37;;;;;;;;;;;26.30;85.60;;;25.59;52.83;95767.56;10414367;28;2084;-80
2021/06/19 06:42:41;;;;;;;;;;;26.40;83.10;;;26.08;52.47;95771.41;10428676;28;2150;-79
2021/06/19 06:47:46;;;;;;;;;;;26.40;84.10;;;26.45;51.28;95776.22;10436825;28;2187;-78
2021/06/19 06:52:49;;;;;;;;;;;26.60;83.00;;;26.55;51.33;95772.81;10437457;28;2083;-79
2021/06/19 06:57:51;;;;;;;;;;;26.90;82.50;;;27.23;48.91;95767.97;10417886;28;2096;-79
2021/06/19 07:02:54;;;;;;;;;;;27.40;81.60;;;27.61;48.19;95766.69;10435317;28;2064;-78
2021/06/19 07:07:57;;;;;;;;;;;27.80;80.30;;;26.95;49.91;95755.47;10415020;28;2181;-79
2021/06/19 07:12:59;;;;;;;;;;;27.60;80.80;;;27.11;49.42;95767.09;10406804;28;2028;-82
2021/06/19 07:18:02;;;;;;;;;;;27.50;80.70;;;26.76;49.40;95763.97;10416039;28;2035;-81
2021/06/19 07:23:05;;;;;;;;;;;27.40;80.00;;;26.98;49.70;95762.22;10410916;28;2131;-80
2021/06/19 07:28:08;;;;;;;;;;;27.30;81.40;;;27.19;49.07;95760.47;10383156;28;2191;-79
2021/06/19 07:33:10;;;;;;;;;;;27.60;80.70;;;27.46;47.22;95768.56;10418770;28;2137;-80
2021/06/19 07:38:13;;;;;;;;;;;27.80;78.50;;;27.41;46.30;95772.47;10408265;28;2171;-79
2021/06/19 07:43:16;;;;;;;;;;;27.80;77.60;;;27.65;45.89;95767.53;10411765;28;2080;-81
2021/06/19 07:48:18;;;;;;;;;;;27.90;77.60;;;27.69;46.07;95765.63;10423097;28;2151;-82
2021/06/19 07:53:21;;;;;;;;;;;28.10;78.00;;;28.20;44.77;95765.50;10407095;28;2107;-79
2021/06/19 07:58:24;;;;;;;;;;;28.40;77.00;;;28.44;44.75;95764.06;10406894;28;2151;-81
2021/06/19 08:03:26;;;;;;;;;;;28.60;76.80;;;28.35;45.83;95768.34;10418595;28;2115;-81
2021/06/19 08:08:29;;;;;;;;;;;28.70;77.00;;;28.59;45.41;95764.09;10412756;28;2149;-81
2021/06/19 08:13:32;;;;;;;;;;;29.00;76.90;;;28.60;45.01;95754.63;10419598;28;2064;-79
2021/06/19 08:18:35;;;;;;;;;;;29.00;76.20;;;29.46;43.04;95738.94;10414805;28;2207;-80
2021/06/19 08:23:37;;;;;;;;;;;29.50;75.30;;;29.47;42.00;95740.53;10424220;28;2111;-81
2021/06/19 08:28:40;;;;;;;;;;;29.80;73.50;;;29.74;41.54;95727.06;10427742;28;2122;-80
2021/06/19 08:33:43;;;;;;;;;;;29.90;72.60;;;29.20;42.07;95720.75;10419588;28;2091;-78
2021/06/19 08:38:46;;;;;;;;;;;29.90;71.60;;;29.57;41.23;95723.13;10429332;28;2132;-80
2021/06/19 08:44:08;;;;;;;;;;;30.00;72.20;;;29.44;42.44;95714.41;10419489;28;2089;-79
2021/06/19 08:49:31;;;;;;;;;;;30.00;72.90;;;30.04;41.09;95707.97;10431994;28;2146;-79
2021/06/19 08:54:53;;;;;;;;;;;30.30;72.40;;;30.11;39.91;95716.28;10433212;28;2064;-81
2021/06/19 08:59:56;;;;;;;;;;;30.50;70.50;;;30.26;39.65;95719.00;10400704;28;2060;-80
2021/06/19 09:04:59;;;;;;;;;;;30.50;70.40;;;30.29;39.98;95712.66;10438412;28;2103;-79
2021/06/19 09:10:02;;;;;;;;;;;30.70;70.50;;;30.59;37.98;95714.88;10412350;28;2071;-80
2021/06/19 09:15:05;;;;;;;;;;;30.90;68.50;;;30.11;39.43;95707.97;10430569;28;2298;-80
2021/06/19 09:20:07;;;;;;;;;;;30.90;68.60;;;30.10;38.43;95709.19;10426876;28;2168;-80
2021/06/19 09:25:10;;;;;;;;;;;30.80;68.10;;;30.21;38.80;95706.34;10427180;28;2107;-79
2021/06/19 09:30:13;;;;;;;;;;;30.50;68.70;;;30.57;37.66;95701.41;10424809;28;2099;-79
2021/06/19 09:35:16;;;;;;;;;;;30.70;68.00;;;30.18;38.73;95700.81;10423639;28;2058;-81
2021/06/19 09:40:19;;;;;;;;;;;30.80;67.60;;;30.59;38.29;95684.34;10425219;28;2255;-79
2021/06/19 09:45:22;;;;;;;;;;;31.00;68.10;;;30.37;38.49;95686.47;10412189;28;2190;-80
2021/06/19 09:50:25;;;;;;;;;;;31.10;67.60;;;30.72;37.06;95685.50;10412069;28;2164;-82
2021/06/19 09:55:27;;;;;;;;;;;31.10;67.40;;;30.25;37.69;95684.94;10412206;28;2202;-81
2021/06/19 10:00:30;;;;;;;;;;;31.20;66.30;;;30.51;38.47;95680.84;10412015;28;2087;-80
2021/06/19 10:05:40;;;;;;;;;;;31.00;67.40;;;30.61;37.86;95671.69;10399292;28;2171;-79
2021/06/19 10:10:43;;;;;;;;;;;31.20;67.20;;;30.78;37.94;95672.75;10395897;28;2060;-80
2021/06/19 10:15:46;;;;;;;;;;;31.20;67.80;;;30.00;38.38;95662.84;10417786;28;2108;-80
2021/06/19 10:20:49;;;;;;;;;;;31.10;66.40;;;30.06;38.12;95661.25;10406269;28;2084;-80
2021/06/19 10:25:53;;;;;;;;;;;30.90;66.00;;;30.30;36.99;95661.56;10392852;28;2125;-81
2021/06/19 10:30:55;;;;;;;;;;;31.00;65.60;;;30.18;37.20;95662.81;10416060;28;2025;-80
2021/06/19 10:35:58;;;;;;;;;;;31.00;65.80;;;30.65;35.15;95660.53;10412989;28;2112;-79
2021/06/19 10:41:01;;;;;;;;;;;31.20;64.50;;;30.99;35.83;95660.72;10407650;28;2225;-79
2021/06/19 10:46:04;;;;;;;;;;;32.00;64.10;;;32.02;33.72;95642.28;10415330;28;2134;-81
2021/06/19 10:51:06;;;;;;;;;;;32.90;61.70;;;32.30;32.82;95629.97;10399808;28;2194;-80
2021/06/19 10:56:09;;;;;;;;;;;33.40;61.10;;;32.24;33.13;95626.88;10403374;28;2063;-80
2021/06/19 11:01:12;;;;;;;;;;;33.70;60.10;;;32.85;29.67;95620.44;10423462;28;2123;-80
2021/06/19 11:06:14;;;;;;;;;;;34.20;57.90;;;32.79;30.69;95611.78;10429242;28;1884;-81
2021/06/19 11:11:17;;;;;;;;;;;34.50;57.20;;;32.37;32.00;95602.09;10414825;28;2181;-80
2021/06/19 11:16:20;;;;;;;;;;;34.20;57.60;;;33.08;30.82;95594.63;10431567;28;2068;-81
2021/06/19 11:21:24;;;;;;;;;;;34.40;57.60;;;33.15;30.22;95588.94;10434905;28;2188;-80
2021/06/19 11:26:27;;;;;;;;;;;34.70;56.70;;;32.77;30.76;95591.94;10436762;28;2118;-79
2021/06/19 11:31:29;;;;;;;;;;;34.20;56.90;;;32.70;31.65;95569.81;10415320;28;2100;-81
2021/06/19 11:36:32;;;;;;;;;;;34.10;58.00;;;32.69;31.09;95562.63;10420186;28;2119;-79
2021/06/19 11:41:35;;;;;;;;;;;33.70;57.60;;;32.71;32.11;95556.69;10411582;28;2040;-80
2021/06/19 11:46:38;;;;;;;;;;;33.70;58.40;;;33.60;29.64;95549.53;10418129;28;2112;-81
2021/06/19 11:51:41;;;;;;;;;;;33.90;57.30;;;32.80;31.66;95552.13;10412983;28;2266;-80
2021/06/19 11:56:44;;;;;;;;;;;33.80;57.60;;;32.31;32.65;95538.97;10404511;28;2205;-81
2021/06/19 12:01:47;;;;;;;;;;;33.20;59.20;;;32.20;33.42;95530.81;10411605;28;2079;-80
2021/06/19 12:06:50;;;;;;;;;;;32.90;60.00;;;31.53;34.43;95527.72;10418776;28;2020;-79
2021/06/19 12:11:53;;;;;;;;;;;32.80;60.00;;;31.95;33.58;95525.63;10423343;28;2234;-77
2021/06/19 12:16:56;;;;;;;;;;;32.60;60.00;;;32.01;33.41;95518.38;10415882;28;2005;-78
2021/06/19 12:22:02;;;;;;;;;;;32.80;59.60;;;32.39;32.61;95505.13;10419244;28;2231;-78
2021/06/19 12:27:05;;;;;;;;;;;32.90;59.70;;;31.92;31.89;95501.41;10415729;28;2232;-81
2021/06/19 12:32:07;;;;;;;;;;;33.00;58.40;;;32.37;31.50;95492.81;10421650;28;2095;-81
2021/06/19 12:37:11;;;;;;;;;;;33.00;58.80;;;31.96;32.79;95496.59;10420036;28;2021;-80
2021/06/19 12:42:14;;;;;;;;;;;32.80;58.80;;;31.96;32.68;95496.59;10426760;28;2064;-80
2021/06/19 12:47:17;;;;;;;;;;;32.90;58.70;;;32.20;32.96;95484.31;10426339;28;2107;-80
2021/06/19 12:52:20;;;;;;;;;;;33.00;59.60;;;32.14;33.66;95483.22;10447959;28;2019;-78
2021/06/19 12:57:22;;;;;;;;;;;33.00;60.00;;;32.61;33.00;95480.50;10422157;28;2095;-81
2021/06/19 13:02:25;;;;;;;;;;;33.20;60.10;;;32.07;32.44;95472.22;10420427;28;2258;-80
2021/06/19 13:07:28;;;;;;;;;;;33.20;58.70;;;32.14;31.76;95474.88;10420576;28;2728;-78
2021/06/19 13:12:30;;;;;;;;;;;33.00;58.40;;;32.37;31.65;95467.78;10424915;28;2067;-80
2021/06/19 13:17:33;;;;;;;;;;;33.30;58.30;;;32.53;32.66;95470.72;10422824;28;2152;-79
2021/06/19 13:22:36;;;;;;;;;;;33.30;59.00;;;32.72;32.93;95467.19;10407973;28;2068;-80
2021/06/19 13:27:39;;;;;;;;;;;33.50;59.40;;;32.01;34.26;95457.22;10407590;28;2099;-80
2021/06/19 13:32:41;;;;;;;;;;;33.40;59.70;;;31.95;34.73;95464.47;10409553;28;2047;-80
2021/06/19 13:37:44;;;;;;;;;;;32.90;60.10;;;31.87;34.02;95462.97;10413847;28;2112;-81
2021/06/19 13:42:47;;;;;;;;;;;32.90;59.60;;;32.54;32.92;95453.59;10406556;28;2087;-81
2021/06/19 13:47:49;;;;;;;;;;;33.00;60.30;;;32.37;33.24;95451.09;10414588;28;2238;-80
2021/06/19 13:52:53;;;;;;;;;;;33.20;59.30;;;32.72;32.04;95449.72;10406152;28;2070;-78
2021/06/19 13:57:55;;;;;;;;;;;33.30;59.20;;;32.00;32.85;95444.50;10411126;28;2076;-80
2021/06/19 14:02:58;;;;;;;;;;;33.10;58.60;;;32.54;31.83;95444.44;10395191;28;2119;-80
2021/06/19 14:08:01;;;;;;;;;;;33.30;58.30;;;32.44;31.80;95439.84;10411865;28;2075;-79
2021/06/19 14:13:03;;;;;;;;;;;33.30;58.10;;;32.70;31.63;95439.00;10402589;28;2047;-80
2021/06/19 14:18:06;;;;;;;;;;;33.40;58.00;;;32.36;32.20;95427.28;10416132;28;2071;-80
2021/06/19 14:23:09;;;;;;;;;;;33.20;57.90;;;32.43;31.88;95413.25;10411780;28;2192;-79
2021/06/19 14:28:12;;;;;;;;;;;33.40;57.60;;;32.75;31.68;95416.22;10407886;28;2086;-82
2021/06/19 14:33:15;;;;;;;;;;;33.50;57.60;;;32.19;31.88;95407.69;10421829;28;2141;-80
2021/06/19 14:38:17;;;;;;;;;;;33.50;56.80;;;32.15;32.80;95406.94;10410782;28;2079;-79
2021/06/19 14:43:20;;;;;;;;;;;33.10;58.40;;;32.21;33.02;95393.34;10416188;28;2083;-81
2021/06/19 14:48:23;;;;;;;;;;;33.00;59.10;;;32.18;33.18;95391.41;10419719;28;2044;-81
2021/06/19 14:53:25;;;;;;;;;;;33.00;59.20;;;32.20;31.79;95381.44;10419750;28;2166;-80
2021/06/19 14:58:28;;;;;;;;;;;33.00;58.10;;;32.07;31.02;95388.81;10417066;28;2272;-81
2021/06/19 15:03:31;;;;;;;;;;;33.10;56.50;;;32.46;30.70;95373.47;10414070;28;2024;-81
2021/06/19 15:08:35;;;;;;;;;;;33.20;56.30;;;32.39;30.00;95371.59;10405347;28;2295;-82
2021/06/19 15:13:37;;;;;;;;;;;33.20;55.70;;;32.65;28.53;95358.78;10417767;28;2054;-81
2021/06/19 15:18:40;;;;;;;;;;;33.20;54.50;;;32.76;27.06;95362.13;10413792;28;2259;-80
2021/06/19 15:23:43;;;;;;;;;;;33.50;52.70;;;32.64;27.21;95348.06;10400798;28;2109;-81
2021/06/19 15:28:46;;;;;;;;;;;33.60;52.10;;;32.74;28.46;95342.31;10392545;28;1935;-81
2021/06/19 15:33:48;;;;;;;;;;;33.60;53.40;;;32.81;28.52;95339.38;10415069;28;2080;-80
2021/06/19 15:38:51;;;;;;;;;;;33.60;53.50;;;32.64;26.76;95343.31;10405067;28;1839;-81
2021/06/19 15:43:55;;;;;;;;;;;33.80;51.20;;;32.67;25.13;95331.31;10401454;28;2077;-81
2021/06/19 15:48:58;;;;;;;;;;;33.60;49.80;;;32.29;24.67;95334.38;10422164;28;1981;-81
2021/06/19 15:54:01;;;;;;;;;;;33.20;49.40;;;32.69;25.01;95326.09;10402545;28;2007;-80
2021/06/19 15:59:03;;;;;;;;;;;33.20;50.00;;;32.26;26.57;95335.25;10425174;28;1878;-81
2021/06/19 16:04:06;;;;;;;;;;;33.20;51.00;;;32.58;26.75;95328.31;10435677;28;2062;-81
2021/06/19 16:09:09;;;;;;;;;;;33.10;52.00;;;32.31;27.64;95328.38;10401355;28;1862;-80
2021/06/19 16:14:13;;;;;;;;;;;33.20;52.20;;;31.82;29.15;95327.28;10407859;28;2050;-79
2021/06/19 16:19:16;;;;;;;;;;;32.90;53.10;;;31.86;30.01;95322.44;10410521;28;2054;-81
2021/06/19 16:24:19;;;;;;;;;;;32.70;54.00;;;31.68;29.96;95317.97;10418977;28;2130;-81
2021/06/19 16:29:22;;;;;;;;;;;32.70;54.10;;;31.41;30.56;95314.41;10397029;28;2152;-81
2021/06/19 16:34:24;;;;;;;;;;;32.40;54.80;;;31.00;32.21;95318.13;10409955;28;2211;-81
2021/06/19 16:39:27;;;;;;;;;;;32.00;56.20;;;31.04;31.83;95318.06;10407926;28;2079;-80
2021/06/19 16:44:30;;;;;;;;;;;31.90;56.30;;;30.87;33.12;95306.81;10413857;28;2107;-82
2021/06/19 16:49:32;;;;;;;;;;;31.80;57.20;;;30.68;33.17;95299.91;10402204;28;2086;-81
2021/06/19 16:54:35;;;;;;;;;;;31.60;57.70;;;30.70;33.37;95293.16;10409233;28;2203;-81
2021/06/19 16:59:38;;;;;;;;;;;31.50;57.90;;;30.35;33.63;95292.38;10416669;28;2251;-80
2021/06/19 17:04:41;;;;;;;;;;;31.30;58.30;;;30.28;33.95;95293.19;10415267;28;2072;-81
2021/06/19 17:09:43;;;;;;;;;;;31.10;59.00;;;30.09;33.98;95297.34;10418606;28;2096;-80
2021/06/19 17:14:46;;;;;;;;;;;31.00;58.80;;;30.24;34.13;95284.16;10402060;28;2422;-79
2021/06/19 17:19:49;;;;;;;;;;;30.90;58.80;;;29.94;33.71;95287.59;10398263;28;2078;-81
2021/06/19 17:24:51;;;;;;;;;;;30.90;58.00;;;29.83;33.62;95284.91;10398805;28;2168;-81
2021/06/19 17:29:54;;;;;;;;;;;30.70;58.20;;;29.77;33.88;95280.22;10406439;28;2333;-80
2021/06/19 17:34:57;;;;;;;;;;;30.60;58.60;;;29.69;34.63;95281.50;10401924;28;2187;-79
2021/06/19 17:39:59;;;;;;;;;;;30.50;59.20;;;29.60;34.67;95260.59;10390201;28;2195;-79
2021/06/19 17:45:02;;;;;;;;;;;30.40;59.30;;;29.74;34.33;95253.38;10437040;28;2068;-79
2021/06/19 17:50:05;;;;;;;;;;;30.40;59.40;;;29.64;34.72;95251.47;10424108;28;2072;-80
2021/06/19 17:55:10;;;;;;;;;;;30.50;59.60;;;29.75;34.61;95257.69;10426781;28;2087;-80
2021/06/19 18:00:13;;;;;;;;;;;30.40;59.70;;;29.74;35.10;95261.69;10422390;28;2107;-80
2021/06/19 18:05:16;;;;;;;;;;;30.40;60.00;;;29.29;35.91;95258.84;10390519;28;2100;-80
2021/06/19 18:10:19;;;;;;;;;;;30.20;60.30;;;29.08;36.38;95257.03;10403680;28;2059;-81
2021/06/19 18:15:22;;;;;;;;;;;29.90;60.60;;;28.83;37.36;95259.94;10419907;28;2084;-81
2021/06/19 18:20:26;;;;;;;;;;;29.80;61.50;;;28.82;37.70;95258.34;10405879;28;2176;-81
2021/06/19 18:25:29;;;;;;;;;;;29.70;62.10;;;28.62;38.46;95254.50;10419995;28;2099;-80
2021/06/19 18:30:31;;;;;;;;;;;29.60;62.80;;;28.43;38.99;95259.31;10418871;28;2199;-79
2021/06/19 18:35:34;;;;;;;;;;;29.40;63.60;;;28.29;39.57;95256.59;10434947;28;2076;-79
2021/06/19 18:40:37;;;;;;;;;;;29.20;64.20;;;28.08;40.45;95264.94;10415367;28;2063;-79
2021/06/19 18:45:40;;;;;;;;;;;29.10;65.00;;;27.92;40.81;95268.13;10412596;28;2199;-79
2021/06/19 18:50:42;;;;;;;;;;;28.90;65.20;;;27.65;41.60;95274.06;10409980;28;2257;-82
2021/06/19 18:55:45;;;;;;;;;;;28.70;66.00;;;27.45;41.98;95262.63;10391775;28;2072;-80
2021/06/19 19:00:48;;;;;;;;;;;28.50;66.50;;;27.24;42.56;95268.16;10403416;28;2196;-80
2021/06/19 19:05:50;;;;;;;;;;;28.30;67.10;;;27.15;42.57;95276.03;10402981;28;2258;-79
2021/06/19 19:10:53;;;;;;;;;;;28.10;67.50;;;26.98;42.92;95290.56;10397454;28;2110;-81
2021/06/19 19:15:56;;;;;;;;;;;28.00;67.90;;;26.86;43.58;95291.72;10399035;28;2079;-81
2021/06/19 19:20:59;;;;;;;;;;;27.90;67.80;;;26.80;43.62;95299.56;10421962;28;2067;-79
2021/06/19 19:26:01;;;;;;;;;;;27.70;68.20;;;26.67;43.90;95301.13;10389778;28;2099;-80
2021/06/19 19:31:04;;;;;;;;;;;27.60;68.50;;;26.49;44.51;95292.78;10420230;28;2291;-80
2021/06/19 19:36:07;;;;;;;;;;;27.50;69.30;;;26.30;45.08;95293.06;10405593;28;2182;-80
2021/06/19 19:41:09;;;;;;;;;;;27.40;69.80;;;26.19;45.64;95281.19;10436177;28;2105;-78
2021/06/19 19:46:12;;;;;;;;;;;27.20;70.50;;;26.06;46.02;95291.75;10422852;28;2092;-81
2021/06/19 19:51:15;;;;;;;;;;;27.10;70.90;;;25.93;46.70;95285.75;10417905;28;2397;-81
2021/06/19 19:56:18;;;;;;;;;;;26.90;71.00;;;25.78;47.12;95276.63;10401165;28;2188;-81
2021/06/19 20:01:20;;;;;;;;;;;26.90;71.50;;;25.74;47.67;95272.28;10417066;28;2090;-78
2021/06/19 20:06:23;;;;;;;;;;;26.80;72.00;;;25.70;47.47;95271.41;10422684;28;2199;-82
2021/06/19 20:11:26;;;;;;;;;;;26.70;72.40;;;25.64;47.88;95273.75;10414135;28;2200;-81
2021/06/19 20:16:29;;;;;;;;;;;26.60;72.80;;;25.61;48.45;95271.75;10413211;28;2110;-80
2021/06/19 20:21:36;;;;;;;;;;;26.60;73.20;;;25.58;48.48;95270.56;10405541;28;2299;-81
2021/06/19 20:26:38;;;;;;;;;;;26.50;73.80;;;25.48;49.03;95276.78;10415855;28;2111;-80
2021/06/19 20:31:41;;;;;;;;;;;26.40;74.10;;;25.39;49.36;95272.78;10404004;28;2075;-79
2021/06/19 20:36:44;;;;;;;;;;;26.40;74.60;;;25.31;49.64;95280.16;10384801;28;2176;-81
2021/06/19 20:41:46;;;;;;;;;;;26.20;75.00;;;25.19;50.24;95275.72;10407530;28;2152;-80
2021/06/19 20:46:49;;;;;;;;;;;26.20;75.50;;;25.08;50.26;95274.09;10388094;28;2188;-81
2021/06/19 20:51:52;;;;;;;;;;;26.00;75.80;;;25.04;50.44;95265.75;10399868;28;2078;-80
2021/06/19 20:56:57;;;;;;;;;;;26.00;76.10;;;24.93;50.29;95273.91;10411512;28;2196;-78
2021/06/19 21:02:02;;;;;;;;;;;25.80;75.70;;;24.79;50.83;95269.03;10417121;28;2075;-79
2021/06/19 21:07:05;;;;;;;;;;;25.80;75.90;;;24.76;50.85;95269.81;10409314;28;2100;-79
2021/06/19 21:12:08;;;;;;;;;;;25.70;76.20;;;24.67;51.22;95268.53;10401946;28;2219;-78
2021/06/19 21:17:10;;;;;;;;;;;25.60;76.60;;;24.57;51.36;95267.25;10392138;28;2139;-81
2021/06/19 21:22:13;;;;;;;;;;;25.50;77.10;;;24.46;52.00;95277.31;10400746;28;100869;-78
2021/06/19 21:27:16;;;;;;;;;;;25.40;77.40;;;24.38;52.12;95279.19;10412627;28;2254;-81
2021/06/19 21:32:19;;;;;;;;;;;25.30;77.60;;;24.35;52.21;95277.19;10414793;28;2096;-80
2021/06/19 21:37:22;;;;;;;;;;;25.30;78.00;;;24.23;52.66;95280.94;10383678;28;2124;-81
2021/06/19 21:42:24;;;;;;;;;;;25.20;78.30;;;24.27;52.26;95281.00;10394496;28;2141;-80
2021/06/19 21:47:27;;;;;;;;;;;25.10;78.40;;;24.56;51.68;95276.66;10409837;28;2270;-78
2021/06/19 21:52:30;;;;;;;;;;;25.10;78.50;;;24.30;51.95;95271.19;10414176;28;2135;-79
2021/06/19 21:57:33;;;;;;;;;;;25.10;78.20;;;24.09;52.61;95285.47;10382874;28;2243;-79
2021/06/19 22:02:35;;;;;;;;;;;25.10;78.50;;;24.02;52.93;95274.38;10397694;28;2103;-79
2021/06/19 22:07:38;;;;;;;;;;;25.00;78.70;;;23.90;53.20;95275.41;10398435;28;2201;-79
2021/06/19 22:12:41;;;;;;;;;;;25.00;79.10;;;23.86;53.30;95282.81;10405432;28;2067;-79
2021/06/19 22:17:44;;;;;;;;;;;24.90;79.30;;;23.79;53.68;95277.97;10413860;28;2088;-79
2021/06/19 22:22:47;;;;;;;;;;;24.80;79.60;;;23.73;53.84;95265.75;10392882;28;2246;-78
2021/06/19 22:27:49;;;;;;;;;;;24.70;79.90;;;23.61;54.30;95266.75;10409101;28;2209;-78
2021/06/19 22:32:52;;;;;;;;;;;24.70;80.20;;;23.46;54.95;95268.44;10411665;28;2123;-79
2021/06/19 22:37:55;;;;;;;;;;;24.50;80.50;;;23.37;55.55;95267.94;10411857;28;2095;-79
2021/06/19 22:42:57;;;;;;;;;;;24.40;81.10;;;23.29;55.65;95262.72;10431325;28;2101;-79
2021/06/19 22:48:00;;;;;;;;;;;24.30;81.40;;;23.22;55.85;95270.78;10431879;28;2243;-78
2021/06/19 22:53:03;;;;;;;;;;;24.20;81.60;;;23.16;56.05;95251.16;10438762;28;2063;-79
2021/06/19 22:58:06;;;;;;;;;;;24.20;81.90;;;23.07;56.15;95236.88;10430233;28;2141;-79
2021/06/19 23:03:08;;;;;;;;;;;24.00;82.20;;;23.06;56.01;95238.84;10434709;28;2164;-78
2021/06/19 23:08:11;;;;;;;;;;;24.00;82.20;;;23.12;55.75;95245.59;10429565;28;2181;-78
2021/06/19 23:13:14;;;;;;;;;;;24.10;82.20;;;23.06;55.82;95236.09;10431570;28;2067;-79